Terminal Aerodrome Forecast
Issued by NWS Detroit/Pontiac, MI

Home | Current Version | Previous Version | Text Only | Print | Product List | Glossary On
Versions: 1 2 3 4 5 6 7 8 9 10 11 12 13 14 15 16 17 18 19 20 21
475
FTUS43 KDTX 291125
TAFFNT
TAF
KFNT 291125Z 2912/3012 02005KT P6SM SKC
     FM291500 05010KT P6SM FEW035 BKN150
     FM300100 06008KT P6SM OVC100=

USA.gov is the U.S. government's official web portal to all federal, state and local government web resources and services.